METAR Data
IDs: Format: Raw Decoded Include TAF

Data at: 1301 UTC 24 May 2022

ETAR 241256Z AUTO 26016G19KT 9999 FEW200 18/06 A2980 RMK AO2 SLP090 T01820057 $